LFMNLFMD

Guest
Details From LFMN - Nice/Cote d'Azur
To LFMD - Mandelieu
Flight Number -
Tags decoded
Created
Modified
Stats Distance 15 nm / 28 km
Max Altitude 0 ft / 0 m
Waypoints 3
Social Downloads 5
Likes 0
Share

Download

Looking for another format? Having issues loading an existing format? Contact us
Advertisement - Login to hide

Notes

Requested: LFMN MN226 LFMD

Route

LFMN MN226 LFMD

ID Type Via Altitude (ft/m) Position (lat/lon) Dist (leg/tot) Name
O LFMN APT - 0 / 0 43.65798 / 7.21536 - / 0 nm Nice/Cote d'Azur
MN226 FIX - 0 / 0 43.52603 / 7.04639 10 / 10 nm
O LFMD APT - 0 / 0 43.54673 / 6.95310 4 / 15 nm Mandelieu

Altitude Profile

Advertisement - Login to hide

LFMN

Details ICAO LFMN (NCE)
Name Nice-Cote d'Azur
Region France
Timezone Unknown
Stats Elevation 12 ft / 4 m (AMSL)
Location 43.658400° 7.215760°
Runways 2
Magnetic Variation 2.748° E

METAR

LFMN 161230Z 11010KT 9999 FEW026 23/17 Q1012 NOSIG

Decode

TAF

TAF LFMN 160800Z 1609/1715 12010KT CAVOK BECMG 1621/1623 35005KT PROB30 TEMPO 1700/1706 BKN014 BECMG 1710/1712 10010KT

Decode

Departure Runways

ID Width Length Bearing (true/mag) Surface Threshold Overrun Markings Lighting
04L 148 ft / 45 m 8,992 ft / 2,741 m 44.86° / 42.11° ASPHALT 0 ft / 0 m 161 ft / 49 m PREC-APP CENTERLINE EDGE THRESHOLD REIL-OMNI
04R 148 ft / 45 m 9,706 ft / 2,958 m 44.86° / 42.11° ASPHALT 0 ft / 0 m 417 ft / 127 m PREC-APP CENTERLINE EDGE THRESHOLD REIL-OMNI
22L 148 ft / 45 m 9,706 ft / 2,958 m 224.88° / 222.13° ASPHALT 0 ft / 0 m 525 ft / 160 m PREC-APP CENTERLINE EDGE THRESHOLD REIL-OMNI
22R 148 ft / 45 m 8,992 ft / 2,741 m 224.88° / 222.13° ASPHALT 564 ft / 172 m 0 ft / 0 m PREC-APP CENTERLINE EDGE THRESHOLD REIL-OMNI

LFMD

Details ICAO LFMD (CEQ)
Name Cannes Mandelieu
Region France
Timezone Europe/Paris (UTC+2.0)
Stats Elevation 14 ft / 4 m (AMSL)
Location 43.546700° 6.953250°
Runways 3
Magnetic Variation 2.688° E

METAR

LFMD 161230Z AUTO 16008KT 100V180 CAVOK 24/17 Q1012 NOSIG

Decode

TAF

TAF LFMD 160800Z 1609/1709 14006KT CAVOK PROB30 TEMPO 1700/1706 BKN014

Decode

Destination Runways

ID Width Length Bearing (true/mag) Surface Threshold Overrun Markings Lighting
04 59 ft / 18 m 2,394 ft / 730 m 45.11° / 42.42° ASPHALT 262 ft / 80 m 0 ft / 0 m VISUAL
17L 164 ft / 50 m 1,812 ft / 552 m 172.67° / 169.99° GRASS 0 ft / 0 m 0 ft / 0 m NONE
17R 148 ft / 45 m 5,290 ft / 1,612 m 172.67° / 169.99° ASPHALT 397 ft / 121 m 0 ft / 0 m APP EDGE THRESHOLD REIL-OMNI
22 59 ft / 18 m 2,394 ft / 730 m 225.12° / 222.43° ASPHALT 0 ft / 0 m 0 ft / 0 m VISUAL
35L 148 ft / 45 m 5,290 ft / 1,612 m 352.68° / 349.99° ASPHALT 1,155 ft / 352 m 0 ft / 0 m APP EDGE THRESHOLD REIL-OMNI
35R 164 ft / 50 m 1,812 ft / 552 m 352.67° / 349.99° GRASS 0 ft / 0 m 0 ft / 0 m NONE

Approach Navaids

Runway Type Ident Frequency Range Bearing (true/mag) Slope Elevation
35L LOC-LOC CMD 110.35 MHz 18 nm / 33 km 352.67° / 349.98 ° - 14 ft / 4 m (AMSL)

Popular Alternatives